createdAt,value
2023-05-14T00:00:04.564Z,95.47
2023-05-14T00:02:31.276Z,95.43
2023-05-14T00:04:57.943Z,96.72
2023-05-14T00:07:30.524Z,96.05
2023-05-14T00:09:58.099Z,97.70
2023-05-14T00:12:26.316Z,101.00
2023-05-14T00:14:53.518Z,96.72
2023-05-14T00:17:20.187Z,95.30
2023-05-14T00:19:46.826Z,96.47
2023-05-14T00:22:13.500Z,99.55
2023-05-14T00:24:40.256Z,100.20
2023-05-14T00:27:07.248Z,98.30
2023-05-14T00:29:33.982Z,97.60
2023-05-14T00:32:00.770Z,99.95
2023-05-14T00:34:27.404Z,100.25
2023-05-14T00:36:54.004Z,97.72
2023-05-14T00:39:21.707Z,97.93
2023-05-14T00:41:48.324Z,94.47
2023-05-14T00:44:14.972Z,98.10
2023-05-14T00:46:43.573Z,99.82
2023-05-14T00:49:10.792Z,97.22
2023-05-14T00:51:37.993Z,99.57
2023-05-14T00:54:04.980Z,93.72
2023-05-14T00:56:31.814Z,96.60
2023-05-14T00:58:58.646Z,95.95
2023-05-14T01:01:28.458Z,93.90
2023-05-14T01:03:57.860Z,97.32
2023-05-14T01:06:36.609Z,99.45
2023-05-14T01:09:26.966Z,104.18
2023-05-14T01:12:18.352Z,96.28
2023-05-14T01:14:59.496Z,96.63
2023-05-14T01:17:30.074Z,94.85
2023-05-14T01:19:57.944Z,94.82
2023-05-14T01:22:24.555Z,103.00
2023-05-14T01:24:51.402Z,97.57
2023-05-14T01:27:29.697Z,96.95
2023-05-14T01:30:09.842Z,103.22
2023-05-14T01:32:39.304Z,96.30
2023-05-14T01:35:07.929Z,96.57
2023-05-14T01:37:35.836Z,97.40
2023-05-14T01:40:03.854Z,96.97
2023-05-14T01:42:31.068Z,96.28
2023-05-14T01:44:57.942Z,96.45
2023-05-14T01:47:24.639Z,96.72
2023-05-14T01:49:51.256Z,96.35
2023-05-14T01:52:20.921Z,98.53
2023-05-14T01:54:48.471Z,101.10
2023-05-14T01:57:15.088Z,100.03
2023-05-14T01:59:41.723Z,99.13
2023-05-14T02:02:08.446Z,98.05
2023-05-14T02:04:35.087Z,100.22
2023-05-14T02:07:01.697Z,100.50
2023-05-14T02:09:28.311Z,98.03
2023-05-14T02:11:54.927Z,99.85
2023-05-14T02:14:21.547Z,103.68
2023-05-14T02:16:48.160Z,100.30
2023-05-14T02:19:14.845Z,98.60
2023-05-14T02:21:41.594Z,98.03
2023-05-14T02:24:08.258Z,98.22
2023-05-14T02:26:35.331Z,97.38
2023-05-14T02:29:01.941Z,98.30
2023-05-14T02:31:28.565Z,99.57
2023-05-14T02:33:55.264Z,100.10
2023-05-14T02:36:21.871Z,97.40
2023-05-14T02:38:48.469Z,97.22
2023-05-14T02:41:15.087Z,99.55
2023-05-14T02:43:41.687Z,98.40
2023-05-14T02:46:08.336Z,97.03
2023-05-14T02:48:34.946Z,103.35
2023-05-14T02:51:02.435Z,99.68
2023-05-14T02:53:29.078Z,96.75
2023-05-14T02:55:55.937Z,96.43
2023-05-14T02:58:25.643Z,96.80
2023-05-14T03:00:55.561Z,98.28
2023-05-14T03:03:22.784Z,95.20
2023-05-14T03:05:49.767Z,97.00
2023-05-14T03:08:16.368Z,96.28
2023-05-14T03:10:43.029Z,95.18
2023-05-14T03:13:09.714Z,95.03
2023-05-14T03:15:36.342Z,98.82
2023-05-14T03:18:02.986Z,96.88
2023-05-14T03:20:29.609Z,96.72
2023-05-14T03:22:56.450Z,103.05
2023-05-14T03:25:23.144Z,97.22
2023-05-14T03:27:49.749Z,96.35
2023-05-14T03:30:16.421Z,97.43
2023-05-14T03:32:43.224Z,96.00
2023-05-14T03:35:09.963Z,98.05
2023-05-14T03:37:36.656Z,97.55
2023-05-14T03:40:03.550Z,100.82
2023-05-14T03:42:30.225Z,97.90
2023-05-14T03:44:56.842Z,97.07
2023-05-14T03:47:23.492Z,98.05
2023-05-14T03:49:50.105Z,100.65
2023-05-14T03:52:16.773Z,98.45
2023-05-14T03:54:43.379Z,98.88
2023-05-14T03:57:09.999Z,100.60
2023-05-14T03:59:36.697Z,97.00
2023-05-14T04:02:03.425Z,100.68
2023-05-14T04:04:30.065Z,98.38
2023-05-14T04:06:56.751Z,101.03
2023-05-14T04:09:23.452Z,99.20
2023-05-14T04:11:50.092Z,97.90
2023-05-14T04:14:16.681Z,96.15
2023-05-14T04:16:43.324Z,95.32
2023-05-14T04:19:09.977Z,96.57
2023-05-14T04:21:36.597Z,97.28
2023-05-14T04:24:03.336Z,95.40
2023-05-14T04:26:29.963Z,96.90
2023-05-14T04:28:56.597Z,99.60
2023-05-14T04:31:23.233Z,96.18
2023-05-14T04:33:49.838Z,96.05
2023-05-14T04:36:16.534Z,98.72
2023-05-14T04:38:43.147Z,97.15
2023-05-14T04:41:09.753Z,97.85
2023-05-14T04:43:36.378Z,98.47
2023-05-14T04:46:03.211Z,96.85
2023-05-14T04:48:29.865Z,98.05
2023-05-14T04:50:56.468Z,98.45
2023-05-14T04:53:23.165Z,98.95
2023-05-14T04:55:49.782Z,97.78
2023-05-14T04:58:16.478Z,96.53
2023-05-14T05:00:43.638Z,96.43
2023-05-14T05:03:10.354Z,99.32
2023-05-14T05:05:37.135Z,98.68
2023-05-14T05:08:03.916Z,100.00
2023-05-14T05:10:30.592Z,100.20
2023-05-14T05:12:57.229Z,98.35
2023-05-14T05:15:25.918Z,97.60
2023-05-14T05:17:53.250Z,98.43
2023-05-14T05:20:19.929Z,97.38
2023-05-14T05:22:46.554Z,98.43
2023-05-14T05:25:13.214Z,99.53
2023-05-14T05:27:39.911Z,97.93
2023-05-14T05:30:07.661Z,100.10
2023-05-14T05:32:34.562Z,101.65
2023-05-14T05:35:01.431Z,98.53
2023-05-14T05:37:28.184Z,97.13
2023-05-14T05:39:54.788Z,97.38
2023-05-14T05:42:22.434Z,97.38
2023-05-14T05:44:49.083Z,98.75
2023-05-14T05:47:16.980Z,102.30
2023-05-14T05:49:43.700Z,101.95
2023-05-14T05:52:10.387Z,97.85
2023-05-14T05:54:37.039Z,98.53
2023-05-14T05:57:03.776Z,96.15
2023-05-14T05:59:30.585Z,103.43
2023-05-14T06:01:57.318Z,101.28
2023-05-14T06:04:23.960Z,97.18
2023-05-14T06:06:50.665Z,98.15
2023-05-14T06:09:17.271Z,100.45
2023-05-14T06:11:43.997Z,96.72
2023-05-14T06:14:10.628Z,96.80
2023-05-14T06:16:37.270Z,98.38
2023-05-14T06:19:03.992Z,95.90
2023-05-14T06:21:30.763Z,99.78
2023-05-14T06:23:57.396Z,95.75
2023-05-14T06:26:24.013Z,93.55
2023-05-14T06:28:50.609Z,94.13
2023-05-14T06:31:18.777Z,94.75
2023-05-14T06:33:45.438Z,95.75
2023-05-14T06:36:12.109Z,89.43
2023-05-14T06:38:38.706Z,88.30
2023-05-14T06:41:05.463Z,88.70
2023-05-14T06:43:32.284Z,86.72
2023-05-14T06:45:59.063Z,87.17
2023-05-14T06:48:27.810Z,86.10
2023-05-14T06:50:55.040Z,85.80
2023-05-14T06:53:21.699Z,83.67
2023-05-14T06:55:48.710Z,83.30
2023-05-14T06:58:15.473Z,87.10
2023-05-14T07:00:43.421Z,81.77
2023-05-14T07:03:10.295Z,85.40
2023-05-14T07:05:36.952Z,81.30
2023-05-14T07:08:03.657Z,82.80
2023-05-14T07:10:30.896Z,80.87
2023-05-14T07:12:57.604Z,81.27
2023-05-14T07:15:24.217Z,81.67
2023-05-14T07:17:50.875Z,81.07
2023-05-14T07:20:17.548Z,81.93
2023-05-14T07:22:44.161Z,82.00
2023-05-14T07:25:10.968Z,84.33
2023-05-14T07:27:37.593Z,84.40
2023-05-14T07:30:04.394Z,82.30
2023-05-14T07:32:31.054Z,82.37
2023-05-14T07:34:57.670Z,84.73
2023-05-14T07:37:25.930Z,82.33
2023-05-14T07:39:53.478Z,84.67
2023-05-14T07:42:31.664Z,84.17
2023-05-14T07:45:01.575Z,85.25
2023-05-14T07:47:29.651Z,87.15
2023-05-14T07:49:57.407Z,88.20
2023-05-14T07:52:24.752Z,85.68
2023-05-14T07:54:51.973Z,84.13
2023-05-14T07:57:19.686Z,85.47
2023-05-14T07:59:47.314Z,84.85
2023-05-14T08:02:15.824Z,85.70
2023-05-14T08:04:42.714Z,84.63
2023-05-14T08:07:09.483Z,85.05
2023-05-14T08:09:36.267Z,85.57
2023-05-14T08:12:03.284Z,84.65
2023-05-14T08:14:29.913Z,84.78
2023-05-14T08:16:56.668Z,86.25
2023-05-14T08:19:24.387Z,87.30
2023-05-14T08:21:51.385Z,85.15
2023-05-14T08:24:18.918Z,84.97
2023-05-14T08:26:45.569Z,85.07
2023-05-14T08:29:13.438Z,87.22
2023-05-14T08:31:42.306Z,85.50
2023-05-14T08:34:09.079Z,84.55
2023-05-14T08:36:35.755Z,84.60
2023-05-14T08:39:02.474Z,83.85
2023-05-14T08:41:29.399Z,83.87
2023-05-14T08:44:11.568Z,85.60
2023-05-14T08:46:39.648Z,89.00
2023-05-14T08:49:27.508Z,83.97
2023-05-14T08:51:54.502Z,83.97
2023-05-14T08:54:23.662Z,83.57
2023-05-14T08:56:52.261Z,84.72
2023-05-14T08:59:19.846Z,84.88
2023-05-14T09:01:52.751Z,85.18
2023-05-14T09:04:25.016Z,85.30
2023-05-14T09:06:53.722Z,87.40
2023-05-14T09:09:22.535Z,85.57
2023-05-14T09:11:51.040Z,86.57
2023-05-14T09:14:17.912Z,85.10
2023-05-14T09:16:49.996Z,86.47
2023-05-14T09:19:19.220Z,85.93
2023-05-14T09:21:47.219Z,85.57
2023-05-14T09:24:24.084Z,85.63
2023-05-14T09:26:56.279Z,85.95
2023-05-14T09:29:27.542Z,85.75
2023-05-14T09:31:55.286Z,86.03
2023-05-14T09:34:27.290Z,83.97
2023-05-14T09:36:59.055Z,84.40
2023-05-14T09:39:26.617Z,86.43
2023-05-14T09:41:53.864Z,82.90
2023-05-14T09:44:21.853Z,84.97
2023-05-14T09:46:49.358Z,83.63
2023-05-14T09:49:16.184Z,83.47
2023-05-14T09:51:42.850Z,82.40
2023-05-14T09:54:09.758Z,82.07
2023-05-14T09:56:37.510Z,81.50
2023-05-14T09:59:04.291Z,85.70
2023-05-14T10:01:31.585Z,83.78
2023-05-14T10:03:58.618Z,83.17
2023-05-14T10:06:33.036Z,83.50
2023-05-14T10:09:05.819Z,82.57
2023-05-14T10:11:36.722Z,90.07
2023-05-14T10:14:07.605Z,82.70
2023-05-14T10:16:38.184Z,83.47
2023-05-14T10:19:12.634Z,82.97
2023-05-14T10:21:41.492Z,84.53
2023-05-14T10:24:09.499Z,84.88
2023-05-14T10:26:39.445Z,88.80
2023-05-14T10:29:06.812Z,83.90
2023-05-14T10:31:55.613Z,85.18
2023-05-14T10:34:33.482Z,84.32
2023-05-14T10:37:07.723Z,84.53
2023-05-14T10:39:40.927Z,86.13
2023-05-14T10:42:08.912Z,85.70
2023-05-14T10:44:36.079Z,87.35
2023-05-14T10:47:03.410Z,85.97
2023-05-14T10:49:42.921Z,87.55
2023-05-14T10:52:12.047Z,84.38
2023-05-14T10:54:39.113Z,85.40
2023-05-14T10:57:11.638Z,84.83
2023-05-14T10:59:41.889Z,89.70
2023-05-14T11:02:23.332Z,84.68
2023-05-14T11:05:05.417Z,85.60
2023-05-14T11:07:34.044Z,86.45
2023-05-14T11:10:06.872Z,85.22
2023-05-14T11:12:35.037Z,84.45
2023-05-14T11:15:06.327Z,85.88
2023-05-14T11:17:34.824Z,90.35
2023-05-14T11:20:01.571Z,85.43
2023-05-14T11:22:28.246Z,87.07
2023-05-14T11:24:54.976Z,85.15
2023-05-14T11:27:23.966Z,84.18
2023-05-14T11:29:50.968Z,85.22
2023-05-14T11:32:18.750Z,90.00
2023-05-14T11:34:46.494Z,85.28
2023-05-14T11:37:15.012Z,85.88
2023-05-14T11:39:53.602Z,84.22
2023-05-14T11:42:22.277Z,85.25
2023-05-14T11:44:50.336Z,84.17
2023-05-14T11:47:18.423Z,83.07
2023-05-14T11:49:45.688Z,84.27
2023-05-14T11:52:14.721Z,84.65
2023-05-14T11:54:42.991Z,84.50
2023-05-14T11:57:15.483Z,85.05
2023-05-14T11:59:42.313Z,83.60
2023-05-14T12:02:12.326Z,83.53
2023-05-14T12:04:39.618Z,83.97
2023-05-14T12:07:14.931Z,82.80
2023-05-14T12:09:50.047Z,83.60
2023-05-14T12:12:20.026Z,83.00
2023-05-14T12:14:47.281Z,82.80
2023-05-14T12:17:22.036Z,84.33
2023-05-14T12:19:52.071Z,82.83
2023-05-14T12:22:23.084Z,84.50
2023-05-14T12:24:57.791Z,81.70
2023-05-14T12:27:26.237Z,81.37
2023-05-14T12:30:20.020Z,82.30
2023-05-14T12:32:51.513Z,84.40
2023-05-14T12:35:18.756Z,81.87
2023-05-14T12:37:45.367Z,81.90
2023-05-14T12:40:12.313Z,81.77
2023-05-14T12:42:38.916Z,80.77
2023-05-14T12:45:08.034Z,80.87
2023-05-14T12:47:35.059Z,81.83
2023-05-14T12:50:02.040Z,81.00
2023-05-14T12:52:37.794Z,80.17
2023-05-14T12:55:06.782Z,81.13
2023-05-14T12:57:35.103Z,81.53
2023-05-14T13:00:06.147Z,81.90
2023-05-14T13:02:32.882Z,82.90
2023-05-14T13:05:02.569Z,82.17
2023-05-14T13:07:30.049Z,82.50
2023-05-14T13:09:56.799Z,82.67
2023-05-14T13:12:24.138Z,80.97
2023-05-14T13:14:50.758Z,81.63
2023-05-14T13:17:17.433Z,83.47
2023-05-14T13:19:44.097Z,81.60
2023-05-14T13:22:10.782Z,84.37
2023-05-14T13:24:37.558Z,80.77
2023-05-14T13:27:04.418Z,81.00
2023-05-14T13:29:31.582Z,80.77
2023-05-14T13:31:58.218Z,81.47
2023-05-14T13:34:24.851Z,81.50
2023-05-14T13:36:51.806Z,80.90
2023-05-14T13:39:22.476Z,81.03
2023-05-14T13:41:50.683Z,81.00
2023-05-14T13:44:17.296Z,80.90
2023-05-14T13:46:44.174Z,80.87
2023-05-14T13:49:11.070Z,80.73
2023-05-14T13:51:37.687Z,81.67
2023-05-14T13:54:04.393Z,82.67
2023-05-14T13:56:31.074Z,80.40
2023-05-14T13:58:57.790Z,85.70
2023-05-14T14:01:24.541Z,82.30
2023-05-14T14:03:51.297Z,83.47
2023-05-14T14:06:17.916Z,82.10
2023-05-14T14:08:44.646Z,85.80
2023-05-14T14:11:12.866Z,81.10
2023-05-14T14:13:40.144Z,83.50
2023-05-14T14:16:07.017Z,81.37
2023-05-14T14:18:34.044Z,81.60
2023-05-14T14:21:00.732Z,82.47
2023-05-14T14:23:27.354Z,82.17
2023-05-14T14:25:53.958Z,82.10
2023-05-14T14:28:20.648Z,82.20
2023-05-14T14:30:47.551Z,81.90
2023-05-14T14:33:14.270Z,82.67
2023-05-14T14:35:40.912Z,81.60
2023-05-14T14:38:07.533Z,82.30
2023-05-14T14:40:34.812Z,81.20
2023-05-14T14:43:02.121Z,82.23
2023-05-14T14:45:28.756Z,82.33
2023-05-14T14:48:27.482Z,81.67
2023-05-14T14:50:55.405Z,81.57
2023-05-14T14:53:23.069Z,82.93
2023-05-14T14:55:50.561Z,83.63
2023-05-14T14:58:19.363Z,82.20
2023-05-14T15:00:46.254Z,82.07
2023-05-14T15:03:14.830Z,83.97
2023-05-14T15:05:41.850Z,82.20
2023-05-14T15:08:08.713Z,82.63
2023-05-14T15:10:37.870Z,82.03
2023-05-14T15:13:06.039Z,82.77
2023-05-14T15:15:34.160Z,82.10
2023-05-14T15:18:01.177Z,82.37
2023-05-14T15:20:27.887Z,82.77
2023-05-14T15:22:54.917Z,81.70
2023-05-14T15:25:23.160Z,83.30
2023-05-14T15:27:50.645Z,82.03
2023-05-14T15:30:17.333Z,84.27
2023-05-14T15:32:45.202Z,83.37
2023-05-14T15:35:12.209Z,83.80
2023-05-14T15:37:41.422Z,82.50
2023-05-14T15:40:09.272Z,83.37
2023-05-14T15:42:37.010Z,82.90
2023-05-14T15:45:04.374Z,82.10
2023-05-14T15:47:31.348Z,82.30
2023-05-14T15:49:58.806Z,83.20
2023-05-14T15:52:25.880Z,83.43
2023-05-14T15:54:52.794Z,83.57
2023-05-14T15:57:20.211Z,82.57
2023-05-14T15:59:47.324Z,86.47
2023-05-14T16:02:14.949Z,83.23
2023-05-14T16:04:41.590Z,82.80
2023-05-14T16:07:12.197Z,82.77
2023-05-14T16:09:39.124Z,82.63
2023-05-14T16:12:06.672Z,83.13
2023-05-14T16:14:34.689Z,82.70
2023-05-14T16:17:04.489Z,83.07
2023-05-14T16:19:31.092Z,83.07
2023-05-14T16:21:57.743Z,82.60
2023-05-14T16:24:24.449Z,83.87
2023-05-14T16:26:51.449Z,83.10
2023-05-14T16:29:18.175Z,84.97
2023-05-14T16:31:44.889Z,83.60
2023-05-14T16:34:11.521Z,83.97
2023-05-14T16:36:38.249Z,83.73
2023-05-14T16:39:07.698Z,85.00
2023-05-14T16:41:35.791Z,84.23
2023-05-14T16:44:02.913Z,85.00
2023-05-14T16:46:31.031Z,83.90
2023-05-14T16:48:57.806Z,86.17
2023-05-14T16:51:24.409Z,86.38
2023-05-14T16:53:51.959Z,84.57
2023-05-14T16:56:18.930Z,85.00
2023-05-14T16:58:45.631Z,84.70
2023-05-14T17:01:12.378Z,84.73
2023-05-14T17:03:39.064Z,84.40
2023-05-14T17:06:06.038Z,84.35
2023-05-14T17:08:33.638Z,84.50
2023-05-14T17:11:00.504Z,85.32
2023-05-14T17:13:27.163Z,85.00
2023-05-14T17:15:53.800Z,87.00
2023-05-14T17:18:20.507Z,84.50
2023-05-14T17:20:47.131Z,87.63
2023-05-14T17:23:13.941Z,87.47
2023-05-14T17:25:40.574Z,88.27
2023-05-14T17:28:07.235Z,85.88
2023-05-14T17:30:33.839Z,85.20
2023-05-14T17:33:00.551Z,85.68
2023-05-14T17:35:27.432Z,90.20
2023-05-14T17:37:54.082Z,85.35
2023-05-14T17:40:20.696Z,85.57
2023-05-14T17:42:47.352Z,86.17
2023-05-14T17:45:15.393Z,85.93
2023-05-14T17:47:42.279Z,86.05
2023-05-14T17:50:09.272Z,85.15
2023-05-14T17:52:35.981Z,85.20
2023-05-14T17:55:02.602Z,85.68
2023-05-14T17:57:29.274Z,87.53
2023-05-14T17:59:55.926Z,85.85
2023-05-14T18:02:22.551Z,85.63
2023-05-14T18:04:49.159Z,85.82
2023-05-14T18:07:16.298Z,86.97
2023-05-14T18:09:42.914Z,85.55
2023-05-14T18:12:12.336Z,85.15
2023-05-14T18:14:38.957Z,85.88
2023-05-14T18:17:06.198Z,86.28
2023-05-14T18:19:32.886Z,87.07
2023-05-14T18:21:59.456Z,85.72
2023-05-14T18:24:26.299Z,86.63
2023-05-14T18:26:52.949Z,86.20
2023-05-14T18:29:19.634Z,87.18
2023-05-14T18:31:46.292Z,87.60
2023-05-14T18:34:12.910Z,86.72
2023-05-14T18:36:39.545Z,86.85
2023-05-14T18:39:06.378Z,86.53
2023-05-14T18:41:32.973Z,87.72
2023-05-14T18:43:59.655Z,87.13
2023-05-14T18:46:26.365Z,88.25
2023-05-14T18:48:53.106Z,86.93
2023-05-14T18:51:19.935Z,87.40
2023-05-14T18:53:46.560Z,87.82
2023-05-14T18:56:13.341Z,87.30
2023-05-14T18:58:40.126Z,87.78
2023-05-14T19:01:06.964Z,87.45
2023-05-14T19:03:34.005Z,86.78
2023-05-14T19:06:00.785Z,89.32
2023-05-14T19:08:27.381Z,86.15
2023-05-14T19:10:54.122Z,86.90
2023-05-14T19:13:21.341Z,87.45
2023-05-14T19:15:48.056Z,88.97
2023-05-14T19:18:14.787Z,88.38
2023-05-14T19:20:42.239Z,87.15
2023-05-14T19:23:08.853Z,87.03
2023-05-14T19:25:35.491Z,87.18
2023-05-14T19:28:03.587Z,87.72
2023-05-14T19:30:30.470Z,87.13
2023-05-14T19:32:57.182Z,88.70
2023-05-14T19:35:24.216Z,88.82
2023-05-14T19:37:50.964Z,87.00
2023-05-14T19:40:17.731Z,90.13
2023-05-14T19:42:44.414Z,87.28
2023-05-14T19:45:11.391Z,87.30
2023-05-14T19:47:38.134Z,87.53
2023-05-14T19:50:05.415Z,90.05
2023-05-14T19:52:32.024Z,86.78
2023-05-14T19:54:58.866Z,87.28
2023-05-14T19:57:26.506Z,88.28
2023-05-14T19:59:53.142Z,87.28
2023-05-14T20:02:21.603Z,87.78
2023-05-14T20:04:49.054Z,87.97
2023-05-14T20:07:15.761Z,88.22
2023-05-14T20:09:42.564Z,88.13
2023-05-14T20:12:09.600Z,89.90
2023-05-14T20:14:36.237Z,89.15
2023-05-14T20:17:03.001Z,88.65
2023-05-14T20:19:29.708Z,88.05
2023-05-14T20:21:56.652Z,88.18
2023-05-14T20:24:23.255Z,88.22
2023-05-14T20:26:50.052Z,89.20
2023-05-14T20:29:16.669Z,88.07
2023-05-14T20:31:43.331Z,88.53
2023-05-14T20:34:09.957Z,88.95
2023-05-14T20:36:37.373Z,89.18
2023-05-14T20:39:06.015Z,88.25
2023-05-14T20:41:32.768Z,89.20
2023-05-14T20:43:59.360Z,88.32
2023-05-14T20:46:26.114Z,89.00
2023-05-14T20:48:55.732Z,91.05
2023-05-14T20:51:22.644Z,90.53
2023-05-14T20:53:49.343Z,88.45
2023-05-14T20:56:16.165Z,90.47
2023-05-14T20:58:42.797Z,89.45
2023-05-14T21:01:09.543Z,89.30
2023-05-14T21:03:36.608Z,88.97
2023-05-14T21:06:03.355Z,91.80
2023-05-14T21:08:32.864Z,89.78
2023-05-14T21:10:59.542Z,89.88
2023-05-14T21:13:26.164Z,90.30
2023-05-14T21:15:52.788Z,89.03
2023-05-14T21:18:19.423Z,88.93
2023-05-14T21:20:46.022Z,90.70
2023-05-14T21:23:12.817Z,91.95
2023-05-14T21:25:39.448Z,89.68
2023-05-14T21:28:06.068Z,89.75
2023-05-14T21:30:32.814Z,95.95
2023-05-14T21:32:59.493Z,93.63
2023-05-14T21:35:26.361Z,90.03
2023-05-14T21:37:53.450Z,88.75
2023-05-14T21:40:20.104Z,93.28
2023-05-14T21:42:46.713Z,89.35
2023-05-14T21:45:13.367Z,91.07
2023-05-14T21:47:40.073Z,88.82
2023-05-14T21:50:07.374Z,89.82
2023-05-14T21:52:34.152Z,89.65
2023-05-14T21:55:00.757Z,91.88
2023-05-14T21:57:28.631Z,89.10
2023-05-14T21:59:55.812Z,90.45
2023-05-14T22:02:22.532Z,90.03
2023-05-14T22:04:49.146Z,90.60
2023-05-14T22:07:15.865Z,89.95
2023-05-14T22:09:42.496Z,94.93
2023-05-14T22:12:09.274Z,90.68
2023-05-14T22:14:36.375Z,89.78
2023-05-14T22:17:03.237Z,92.07
2023-05-14T22:19:29.847Z,90.18
2023-05-14T22:21:56.661Z,90.75
2023-05-14T22:24:23.302Z,92.18
2023-05-14T22:26:50.419Z,93.00
2023-05-14T22:29:17.083Z,91.38
2023-05-14T22:31:43.952Z,89.63
2023-05-14T22:34:10.632Z,89.13
2023-05-14T22:36:37.376Z,89.50
2023-05-14T22:39:04.102Z,93.05
2023-05-14T22:41:30.857Z,90.43
2023-05-14T22:43:57.487Z,91.95
2023-05-14T22:46:24.194Z,91.95
2023-05-14T22:48:51.056Z,91.07
2023-05-14T22:51:17.866Z,92.20
2023-05-14T22:53:45.376Z,92.43
2023-05-14T22:56:11.988Z,91.57
2023-05-14T22:58:38.605Z,90.15
2023-05-14T23:01:05.419Z,91.60
2023-05-14T23:03:32.017Z,90.68
2023-05-14T23:05:58.802Z,90.95
2023-05-14T23:08:25.480Z,91.05
2023-05-14T23:10:52.133Z,91.78
2023-05-14T23:13:19.191Z,92.45
2023-05-14T23:15:45.896Z,91.75
2023-05-14T23:18:12.841Z,91.32
2023-05-14T23:20:39.498Z,90.88
2023-05-14T23:23:06.427Z,93.85
2023-05-14T23:25:33.066Z,97.43
2023-05-14T23:27:59.916Z,91.32
2023-05-14T23:30:26.524Z,91.00
2023-05-14T23:32:53.205Z,101.93
2023-05-14T23:35:19.822Z,92.13
2023-05-14T23:37:49.356Z,95.97
2023-05-14T23:40:16.124Z,91.63
2023-05-14T23:42:44.302Z,92.88
2023-05-14T23:45:12.051Z,92.60
2023-05-14T23:47:38.884Z,95.82
2023-05-14T23:50:05.962Z,93.93
2023-05-14T23:52:32.914Z,92.72
2023-05-14T23:55:00.696Z,92.70
2023-05-14T23:57:27.400Z,94.10
2023-05-14T23:59:54.034Z,91.53
